Time;durP1;ratioP1;P1;durP2;ratioP2;P2;SDS_P1;SDS_P2;PMS_P1;PMS_P2;Temp;Humidity;BMP_temperature;BMP_pressure;BME280_temperature;BME280_humidity;BME280_pressure;Samples;Min_cycle;Max_cycle;Signal;HPM_P1;HPM_P2
2023/03/15 00:01:58;;;;;;;13.03;11.93;;;;;;;-145.53;100.00;64590.91;6352263;28;20927;-64
2023/03/15 00:05:02;;;;;;;12.70;11.50;;;;;;;-145.53;100.00;64590.91;6347794;28;20797;-64
2023/03/15 00:08:15;;;;;;;12.70;11.60;;;;;;;-145.53;100.00;64590.91;6359466;27;20853;-64
2023/03/15 00:11:29;;;;;;;12.50;11.40;;;;;;;-145.53;100.00;64590.91;6358757;27;20417;-64
2023/03/15 00:14:40;;;;;;;11.03;10.13;;;;;;;-145.53;100.00;64590.91;6353182;28;20427;-64
2023/03/15 00:17:45;;;;;;;11.37;10.37;;;;;;;-145.53;100.00;64590.91;6352793;27;20443;-64
2023/03/15 00:20:52;;;;;;;11.20;10.30;;;;;;;-145.53;100.00;64590.91;6352732;28;20462;-64
2023/03/15 00:24:02;;;;;;;10.73;9.83;;;;;;;-145.53;100.00;64590.91;6359463;27;20466;-64
2023/03/15 00:27:12;;;;;;;10.73;9.83;;;;;;;-145.53;100.00;64590.91;6347681;27;20446;-64
2023/03/15 00:30:27;;;;;;;11.13;10.07;;;;;;;-145.53;100.00;64590.91;6353462;28;20575;-64
2023/03/15 00:33:40;;;;;;;11.33;10.33;;;;;;;-145.53;100.00;64590.91;6350936;28;20420;-64
2023/03/15 00:36:53;;;;;;;10.47;9.37;;;;;;;-145.53;100.00;64590.91;6357001;28;20416;-64
2023/03/15 00:40:05;;;;;;;10.00;9.10;;;;;;;-145.53;100.00;64590.91;6347611;27;20955;-63
2023/03/15 00:43:18;;;;;;;13.60;9.43;;;;;;;-145.53;100.00;64590.91;6347297;28;20424;-63
2023/03/15 00:46:32;;;;;;;9.77;9.00;;;;;;;-145.53;100.00;64590.91;6353890;28;20451;-64
2023/03/15 00:49:42;;;;;;;10.13;9.23;;;;;;;-145.53;100.00;64590.91;6322225;28;21246;-65
2023/03/15 00:52:52;;;;;;;8.63;7.93;;;;;;;-145.53;100.00;64590.91;6332223;28;20422;-62
2023/03/15 00:56:09;;;;;;;9.77;8.90;;;;;;;-145.53;100.00;64590.91;6332281;28;20432;-63
2023/03/15 00:59:23;;;;;;;9.13;8.30;;;;;;;-145.53;100.00;64590.91;6332983;28;20417;-64
2023/03/15 01:02:36;;;;;;;9.87;9.07;;;;;;;-145.53;100.00;64590.91;6322056;28;20480;-63
2023/03/15 01:05:48;;;;;;;9.53;8.63;;;;;;;-145.53;100.00;64590.91;6333529;28;20432;-63
2023/03/15 01:09:00;;;;;;;8.43;7.73;;;;;;;-145.53;100.00;64590.91;6336908;28;20428;-62
2023/03/15 01:12:08;;;;;;;8.53;7.83;;;;;;;-145.53;100.00;64590.91;6329641;28;20441;-63
2023/03/15 01:15:19;;;;;;;8.30;7.60;;;;;;;-145.53;100.00;64590.91;6327833;28;20928;-63
2023/03/15 01:18:27;;;;;;;7.80;7.20;;;;;;;-145.53;100.00;64590.91;6334173;28;20417;-63
2023/03/15 01:21:42;;;;;;;7.23;6.63;;;;;;;-145.53;100.00;64590.91;6336229;28;20953;-62
2023/03/15 01:24:56;;;;;;;7.90;7.20;;;;;;;-145.53;100.00;64590.91;6325648;28;20606;-63
2023/03/15 01:28:03;;;;;;;7.73;7.07;;;;;;;-145.53;100.00;64590.91;6336657;28;20503;-63
2023/03/15 01:31:20;;;;;;;7.80;7.10;;;;;;;-145.53;100.00;64590.91;6336547;28;20908;-62
2023/03/15 01:34:31;;;;;;;7.73;7.03;;;;;;;-145.53;100.00;64590.91;6334378;28;20425;-63
2023/03/15 01:37:38;;;;;;;7.13;6.53;;;;;;;-145.53;100.00;64590.91;6329815;28;20433;-66
2023/03/15 01:40:48;;;;;;;7.40;6.80;;;;;;;-145.53;100.00;64590.91;6335250;28;20436;-63
2023/03/15 01:43:54;;;;;;;7.23;6.63;;;;;;;-145.53;100.00;64590.91;6334233;28;20456;-62
2023/03/15 01:47:04;;;;;;;6.53;5.93;;;;;;;-145.53;100.00;64590.91;6322060;27;20964;-64
2023/03/15 01:50:14;;;;;;;6.97;6.47;;;;;;;-145.53;100.00;64590.91;6362376;27;20791;-63
2023/03/15 01:53:24;;;;;;;6.17;5.70;;;;;;;-145.53;100.00;64590.91;6361319;28;20435;-62
2023/03/15 01:56:35;;;;;;;5.97;5.47;;;;;;;-145.53;100.00;64590.91;6361691;27;20505;-62
2023/03/15 01:59:48;;;;;;;5.93;5.53;;;;;;;-145.53;100.00;64590.91;6350911;27;20435;-62
2023/03/15 02:03:08;;;;;;;6.37;5.87;;;;;;;-145.53;100.00;64590.91;6361659;27;20516;-62
2023/03/15 02:06:18;;;;;;;6.00;5.60;;;;;;;-145.53;100.00;64590.91;6361975;27;20478;-62
2023/03/15 02:09:24;;;;;;;5.90;5.30;;;;;;;-145.53;100.00;64590.91;6353108;28;20511;-62
2023/03/15 02:12:35;;;;;;;5.57;5.17;;;;;;;-145.53;100.00;64590.91;6358015;27;20823;-62
2023/03/15 02:15:45;;;;;;;5.90;5.50;;;;;;;-145.53;100.00;64590.91;6361064;27;20421;-62
2023/03/15 02:19:00;;;;;;;5.73;5.23;;;;;;;-145.53;100.00;64590.91;6357484;28;20500;-62
2023/03/15 02:22:21;;;;;;;5.30;4.90;;;;;;;-145.53;100.00;64590.91;6350093;27;20440;-63
2023/03/15 02:25:41;;;;;;;5.33;4.93;;;;;;;-145.53;100.00;64590.91;6361815;28;20456;-62
2023/03/15 02:29:01;;;;;;;5.10;4.70;;;;;;;-145.53;100.00;64590.91;6348988;28;20421;-62
2023/03/15 02:32:15;;;;;;;4.87;4.47;;;;;;;-145.53;100.00;64590.91;6354588;27;20506;-62
2023/03/15 02:35:30;;;;;;;5.07;4.63;;;;;;;-145.53;100.00;64590.91;6361609;28;20559;-61
2023/03/15 02:38:41;;;;;;;5.07;4.67;;;;;;;-145.53;100.00;64590.91;6362003;27;20583;-62
2023/03/15 02:41:53;;;;;;;5.50;5.10;;;;;;;-145.53;100.00;64590.91;6360888;27;20444;-62
2023/03/15 02:45:02;;;;;;;5.10;4.70;;;;;;;-145.53;100.00;64590.91;6335745;28;20441;-61
2023/03/15 02:48:16;;;;;;;5.47;4.97;;;;;;;-145.53;100.00;64590.91;6360370;27;20585;-62
2023/03/15 02:51:34;;;;;;;5.23;4.83;;;;;;;-145.53;100.00;64590.91;6360895;28;20421;-63
2023/03/15 02:54:43;;;;;;;5.93;5.43;;;;;;;-145.53;100.00;64590.91;6355727;27;20515;-64
2023/03/15 02:57:53;;;;;;;5.57;5.07;;;;;;;-145.53;100.00;64590.91;6354795;28;20447;-63
2023/03/15 03:01:03;;;;;;;4.80;4.47;;;;;;;-145.53;100.00;64590.91;6360605;27;20908;-63
2023/03/15 03:04:14;;;;;;;5.10;4.70;;;;;;;-145.53;100.00;64590.91;6357616;27;20518;-63
2023/03/15 03:07:25;;;;;;;5.20;4.80;;;;;;;-145.53;100.00;64590.91;6347756;27;20436;-63
2023/03/15 03:10:30;;;;;;;6.00;5.50;;;;;;;-145.53;100.00;64590.91;6358462;27;20417;-63
2023/03/15 03:13:38;;;;;;;5.40;5.00;;;;;;;-145.53;100.00;64590.91;6358940;28;20494;-63
2023/03/15 03:16:54;;;;;;;5.77;5.37;;;;;;;-145.53;100.00;64590.91;6360368;27;20420;-63
2023/03/15 03:20:06;;;;;;;6.17;5.67;;;;;;;-145.53;100.00;64590.91;6348351;28;20531;-63
2023/03/15 03:23:14;;;;;;;5.30;4.90;;;;;;;-145.53;100.00;64590.91;6359850;28;20444;-63
2023/03/15 03:26:26;;;;;;;5.43;5.03;;;;;;;-145.53;100.00;64590.91;6358808;27;20547;-63
2023/03/15 03:29:35;;;;;;;5.90;5.40;;;;;;;-145.53;100.00;64590.91;6334525;28;20441;-63
2023/03/15 03:32:48;;;;;;;5.33;4.83;;;;;;;-145.53;100.00;64590.91;6360371;27;20444;-63
2023/03/15 03:36:02;;;;;;;5.40;5.00;;;;;;;-145.53;100.00;64590.91;6360520;28;20435;-63
2023/03/15 03:39:15;;;;;;;6.07;5.60;;;;;;;-145.53;100.00;64590.91;6359917;28;20421;-63
2023/03/15 03:42:23;;;;;;;6.70;6.17;;;;;;;-145.53;100.00;64590.91;6348519;27;20582;-63
2023/03/15 03:45:36;;;;;;;6.23;5.63;;;;;;;-145.53;100.00;64590.91;6359950;27;20460;-63
2023/03/15 03:48:51;;;;;;;6.03;5.53;;;;;;;-145.53;100.00;64590.91;6359100;27;20440;-63
2023/03/15 03:51:59;;;;;;;5.67;5.27;;;;;;;-145.53;100.00;64590.91;6353434;27;20478;-63
2023/03/15 03:55:07;;;;;;;6.43;5.93;;;;;;;-145.53;100.00;64590.91;6352068;27;20452;-63
2023/03/15 03:58:16;;;;;;;5.90;5.40;;;;;;;-145.53;100.00;64590.91;6359556;27;20464;-63
2023/03/15 04:01:26;;;;;;;5.60;5.10;;;;;;;-145.53;100.00;64590.91;6358993;27;20488;-63
2023/03/15 04:04:35;;;;;;;6.10;5.60;;;;;;;-145.53;100.00;64590.91;6348031;27;20921;-64
2023/03/15 04:07:44;;;;;;;5.30;4.90;;;;;;;-145.53;100.00;64590.91;6356716;28;20424;-63
2023/03/15 04:10:53;;;;;;;5.60;5.10;;;;;;;-145.53;100.00;64590.91;6357443;27;20924;-64
2023/03/15 04:14:00;;;;;;;4.93;4.53;;;;;;;-145.53;100.00;64590.91;6355527;28;20433;-64
2023/03/15 04:17:04;;;;;;;4.97;4.53;;;;;;;-145.53;100.00;64590.91;6345883;28;20433;-67
2023/03/15 04:20:14;;;;;;;7.17;4.90;;;;;;;-145.53;100.00;64590.91;6356395;28;20425;-61
2023/03/15 04:23:19;;;;;;;8.40;4.93;;;;;;;-145.53;100.00;64590.91;6355671;27;20433;-61
2023/03/15 04:26:25;;;;;;;9.13;5.20;;;;;;;-145.53;100.00;64590.91;6351499;28;20839;-64
2023/03/15 04:29:31;;;;;;;9.50;8.50;;;;;;;-145.53;100.00;64590.91;6354258;27;20436;-63
2023/03/15 04:32:37;;;;;;;39.43;36.67;;;;;;;-145.53;100.00;64590.91;6357450;28;20531;-63
2023/03/15 04:35:47;;;;;;;29.50;27.23;;;;;;;-145.53;100.00;64590.91;6357864;27;20518;-63
2023/03/15 04:39:03;;;;;;;21.27;19.53;;;;;;;-145.53;100.00;64590.91;6337873;27;20432;-63
2023/03/15 04:42:13;;;;;;;16.20;14.90;;;;;;;-145.53;100.00;64590.91;6360375;28;20910;-62
2023/03/15 04:45:22;;;;;;;13.70;12.60;;;;;;;-145.53;100.00;64590.91;6363166;27;20436;-62
2023/03/15 04:48:32;;;;;;;11.33;10.30;;;;;;;-145.53;100.00;64590.91;6345293;27;20437;-66
2023/03/15 04:51:47;;;;;;;8.23;7.50;;;;;;;-145.53;100.00;64590.91;6328847;28;20530;-65
2023/03/15 04:54:55;;;;;;;7.40;6.70;;;;;;;-145.53;100.00;64590.91;6337174;28;20469;-64
2023/03/15 04:58:06;;;;;;;11.90;6.97;;;;;;;-145.53;100.00;64590.91;6337716;28;20421;-64
2023/03/15 05:01:17;;;;;;;8.00;7.20;;;;;;;-145.53;100.00;64590.91;6325573;28;20457;-63
2023/03/15 05:04:25;;;;;;;9.30;6.40;;;;;;;-145.53;100.00;64590.91;6328871;28;20441;-63
2023/03/15 05:07:33;;;;;;;12.20;7.60;;;;;;;-145.53;100.00;64590.91;6337241;28;20795;-62
2023/03/15 05:10:39;;;;;;;9.60;8.20;;;;;;;-145.53;100.00;64590.91;6325991;28;20422;-62
2023/03/15 05:13:48;;;;;;;9.03;6.97;;;;;;;-145.53;100.00;64590.91;6325712;28;20439;-62
2023/03/15 05:17:00;;;;;;;9.37;7.30;;;;;;;-145.53;100.00;64590.91;6326892;28;20508;-62
2023/03/15 05:20:11;;;;;;;12.77;7.00;;;;;;;-145.53;100.00;64590.91;6335237;28;20433;-63
2023/03/15 05:23:22;;;;;;;8.53;6.40;;;;;;;-145.53;100.00;64590.91;6331879;28;21055;-63
2023/03/15 05:26:33;;;;;;;7.17;6.27;;;;;;;-145.53;100.00;64590.91;6337082;28;20433;-65
2023/03/15 05:29:50;;;;;;;7.40;6.70;;;;;;;-145.53;100.00;64590.91;6337512;28;20418;-63
2023/03/15 05:33:03;;;;;;;10.00;6.97;;;;;;;-145.53;100.00;64590.91;6313909;28;20513;-63
2023/03/15 05:36:16;;;;;;;10.47;8.73;;;;;;;-145.53;100.00;64590.91;6301039;28;20445;-63
2023/03/15 05:39:29;;;;;;;12.00;10.70;;;;;;;-145.53;100.00;64590.91;6315323;28;20897;-63
2023/03/15 05:42:42;;;;;;;11.80;10.70;;;;;;;-145.53;100.00;64590.91;6337639;28;20935;-64
2023/03/15 05:45:49;;;;;;;12.83;11.63;;;;;;;-145.53;100.00;64590.91;6334931;28;20524;-63
2023/03/15 05:48:58;;;;;;;13.03;11.77;;;;;;;-145.53;100.00;64590.91;6351328;27;20440;-63
2023/03/15 05:52:07;;;;;;;13.83;12.63;;;;;;;-145.53;100.00;64590.91;6361917;27;20429;-62
2023/03/15 05:55:21;;;;;;;16.10;14.60;;;;;;;-145.53;100.00;64590.91;6362813;27;20499;-63
2023/03/15 05:58:32;;;;;;;18.20;15.30;;;;;;;-145.53;100.00;64590.91;6351177;27;20432;-63
2023/03/15 06:01:40;;;;;;;15.90;14.40;;;;;;;-145.53;100.00;64590.91;6363029;27;20427;-63
2023/03/15 06:04:52;;;;;;;16.27;14.77;;;;;;;-145.53;100.00;64590.91;6362907;27;20922;-63
2023/03/15 06:08:04;;;;;;;14.90;13.70;;;;;;;-145.53;100.00;64590.91;6362761;27;20424;-64
2023/03/15 06:11:19;;;;;;;15.80;14.10;;;;;;;-145.53;100.00;64590.91;6334115;27;20434;-63
2023/03/15 06:14:33;;;;;;;16.93;15.33;;;;;;;-145.53;100.00;64590.91;6337351;28;20432;-63
2023/03/15 06:17:42;;;;;;;16.60;15.10;;;;;;;-145.53;100.00;64590.91;6337373;28;20541;-63
2023/03/15 06:20:52;;;;;;;16.80;14.53;;;;;;;-145.53;100.00;64590.91;6329786;28;20437;-63
2023/03/15 06:24:06;;;;;;;18.17;16.53;;;;;;;-145.53;100.00;64590.91;6336355;28;20802;-64
2023/03/15 06:27:21;;;;;;;19.23;17.23;;;;;;;-145.53;100.00;64590.91;6336923;28;20429;-63
2023/03/15 06:30:31;;;;;;;16.53;14.93;;;;;;;-145.53;100.00;64590.91;6336760;28;20473;-61
2023/03/15 06:33:42;;;;;;;17.23;15.73;;;;;;;-145.53;100.00;64590.91;6325228;28;20433;-63
2023/03/15 06:36:56;;;;;;;18.03;16.50;;;;;;;-145.53;100.00;64590.91;6336632;28;20451;-63
2023/03/15 06:40:05;;;;;;;18.20;16.53;;;;;;;-145.53;100.00;64590.91;6343568;28;20442;-63
2023/03/15 06:43:18;;;;;;;18.17;16.37;;;;;;;-145.53;100.00;64590.91;6356890;27;20436;-63
2023/03/15 06:46:29;;;;;;;18.33;16.53;;;;;;;-145.53;100.00;64590.91;6355848;27;20459;-64
2023/03/15 06:49:43;;;;;;;17.77;16.07;;;;;;;-145.53;100.00;64590.91;6335916;28;20434;-63
2023/03/15 06:52:56;;;;;;;18.70;16.90;;;;;;;-145.53;100.00;64590.91;6336012;28;20768;-63
2023/03/15 06:56:02;;;;;;;17.10;15.60;;;;;;;-145.53;100.00;64590.91;6323988;28;20445;-62
2023/03/15 06:59:10;;;;;;;17.30;15.70;;;;;;;-145.53;100.00;64590.91;6335839;28;20418;-62
2023/03/15 07:02:19;;;;;;;17.07;15.47;;;;;;;-145.53;100.00;64590.91;6336025;28;20476;-63
2023/03/15 07:05:26;;;;;;;17.23;15.43;;;;;;;-145.53;100.00;64590.91;6335917;28;20694;-63
2023/03/15 07:08:33;;;;;;;16.50;15.00;;;;;;;-145.53;100.00;64590.91;6324650;28;20467;-62
2023/03/15 07:11:39;;;;;;;16.53;14.90;;;;;;;-145.53;100.00;64590.91;6315782;28;20514;-69
2023/03/15 07:14:46;;;;;;;16.97;15.27;;;;;;;-145.53;100.00;64590.91;6310351;28;20501;-69
2023/03/15 07:17:51;;;;;;;15.13;13.77;;;;;;;-145.53;100.00;64590.91;6303643;28;20520;-69
2023/03/15 07:20:58;;;;;;;15.73;14.13;;;;;;;-145.53;100.00;64590.91;6307739;28;20528;-69
2023/03/15 07:24:03;;;;;;;16.17;14.67;;;;;;;-145.53;100.00;64590.91;6310157;28;20952;-69
2023/03/15 07:27:07;;;;;;;16.07;14.47;;;;;;;-145.53;100.00;64590.91;6310438;28;20434;-69
2023/03/15 07:30:13;;;;;;;17.27;15.57;;;;;;;-145.53;100.00;64590.91;6299482;28;20454;-69
2023/03/15 07:33:17;;;;;;;14.13;12.77;;;;;;;-145.53;100.00;64590.91;6310559;28;20569;-69
2023/03/15 07:36:26;;;;;;;14.87;13.57;;;;;;;-145.53;100.00;64590.91;6310205;28;20458;-69
2023/03/15 07:39:40;;;;;;;14.93;13.60;;;;;;;-145.53;100.00;64590.91;6312452;28;20480;-69
2023/03/15 07:42:49;;;;;;;14.97;13.60;;;;;;;-145.53;100.00;64590.91;6324545;28;20831;-70
2023/03/15 07:46:04;;;;;;;14.53;13.17;;;;;;;-145.53;100.00;64590.91;6334858;28;20441;-65
2023/03/15 07:49:19;;;;;;;14.17;12.87;;;;;;;-145.53;100.00;64590.91;6358427;28;20436;-70
2023/03/15 07:52:29;;;;;;;13.57;12.43;;;;;;;-145.53;100.00;64590.91;6349486;27;20451;-66
2023/03/15 07:55:39;;;;;;;13.30;12.10;;;;;;;-145.53;100.00;64590.91;6360165;27;20501;-66
2023/03/15 07:58:51;;;;;;;14.27;13.00;;;;;;;-145.53;100.00;64590.91;6360176;27;20923;-66
2023/03/15 08:02:07;;;;;;;14.20;12.13;;;;;;;-145.53;100.00;64590.91;6360468;27;20797;-66
2023/03/15 08:05:20;;;;;;;14.43;13.00;;;;;;;-145.53;100.00;64590.91;6348554;27;20455;-66
2023/03/15 08:08:26;;;;;;;12.33;11.23;;;;;;;-145.53;100.00;64590.91;6359969;27;20417;-66
2023/03/15 08:11:38;;;;;;;12.90;11.70;;;;;;;-145.53;100.00;64590.91;6341506;27;20859;-67
2023/03/15 08:14:50;;;;;;;12.07;10.97;;;;;;;-145.53;100.00;64590.91;6326319;28;20429;-67
2023/03/15 08:18:07;;;;;;;12.93;11.67;;;;;;;-145.53;100.00;64590.91;6333987;28;20856;-67
2023/03/15 08:21:22;;;;;;;12.40;11.30;;;;;;;-145.53;100.00;64590.91;6334537;28;20414;-66
2023/03/15 08:24:35;;;;;;;12.37;11.17;;;;;;;-145.53;100.00;64590.91;6334542;28;20820;-66
2023/03/15 08:27:43;;;;;;;11.10;10.10;;;;;;;-145.53;100.00;64590.91;6323004;28;20863;-66
2023/03/15 08:30:55;;;;;;;11.00;10.00;;;;;;;-145.53;100.00;64590.91;6334350;28;20923;-67
2023/03/15 08:34:07;;;;;;;11.37;10.47;;;;;;;-145.53;100.00;64590.91;6334433;28;20432;-67
2023/03/15 08:37:17;;;;;;;10.40;9.50;;;;;;;-145.53;100.00;64590.91;6329272;28;20511;-67
2023/03/15 08:40:25;;;;;;;10.67;9.67;;;;;;;-145.53;100.00;64590.91;6336545;28;21074;-66
2023/03/15 08:43:42;;;;;;;11.50;10.40;;;;;;;-145.53;100.00;64590.91;6359631;27;20416;-67
2023/03/15 08:46:53;;;;;;;10.63;9.70;;;;;;;-145.53;100.00;64590.91;6358846;27;20447;-66
2023/03/15 08:50:15;;;;;;;10.00;9.03;;;;;;;-145.53;100.00;64590.91;6348783;27;20449;-66
2023/03/15 08:53:27;;;;;;;11.70;9.47;;;;;;;-145.53;100.00;64590.91;6359187;27;20455;-66
2023/03/15 08:56:36;;;;;;;9.87;8.97;;;;;;;-145.53;100.00;64590.91;6359732;27;20434;-67
2023/03/15 08:59:48;;;;;;;9.37;8.53;;;;;;;-145.53;100.00;64590.91;6359550;27;20417;-66
2023/03/15 09:02:59;;;;;;;9.33;8.53;;;;;;;-145.53;100.00;64590.91;6351315;27;20435;-65
2023/03/15 09:06:15;;;;;;;9.20;8.50;;;;;;;-145.53;100.00;64590.91;6359214;27;20433;-66
2023/03/15 09:09:33;;;;;;;9.13;8.33;;;;;;;-145.53;100.00;64590.91;6359453;28;20425;-64
2023/03/15 09:12:58;;;;;;;8.90;8.20;;;;;;;-145.53;100.00;64590.91;6321642;28;20519;-64
2023/03/15 09:16:09;;;;;;;9.43;8.53;;;;;;;-145.53;100.00;64590.91;6333626;28;20421;-64
2023/03/15 09:19:21;;;;;;;8.97;8.07;;;;;;;-145.53;100.00;64590.91;6333579;28;20441;-66
2023/03/15 09:22:34;;;;;;;8.97;8.07;;;;;;;-145.53;100.00;64590.91;6333684;28;20445;-66
2023/03/15 09:25:50;;;;;;;8.57;7.87;;;;;;;-145.53;100.00;64590.91;6324343;28;20434;-67
2023/03/15 09:29:00;;;;;;;8.07;7.37;;;;;;;-145.53;100.00;64590.91;6337942;28;20421;-67
2023/03/15 09:32:13;;;;;;;8.37;7.63;;;;;;;-145.53;100.00;64590.91;6337826;28;20516;-66
2023/03/15 09:35:23;;;;;;;8.40;7.63;;;;;;;-145.53;100.00;64590.91;6326475;28;20437;-65
2023/03/15 09:38:36;;;;;;;9.07;8.17;;;;;;;-145.53;100.00;64590.91;6337802;28;20933;-67
2023/03/15 09:41:50;;;;;;;8.37;7.67;;;;;;;-145.53;100.00;64590.91;6356305;28;20412;-65
2023/03/15 09:45:08;;;;;;;8.00;7.40;;;;;;;-145.53;100.00;64590.91;6362568;27;20912;-65
2023/03/15 09:48:29;;;;;;;7.60;7.00;;;;;;;-145.53;100.00;64590.91;6350774;27;20448;-66
2023/03/15 09:51:46;;;;;;;8.00;7.30;;;;;;;-145.53;100.00;64590.91;6362966;27;20433;-66
2023/03/15 09:55:03;;;;;;;7.63;6.93;;;;;;;-145.53;100.00;64590.91;6362752;27;20420;-66
2023/03/15 09:58:20;;;;;;;7.73;7.13;;;;;;;-145.53;100.00;64590.91;6351836;27;20444;-65
2023/03/15 10:01:36;;;;;;;7.23;6.63;;;;;;;-145.53;100.00;64590.91;6362737;27;20417;-66
2023/03/15 10:04:47;;;;;;;7.23;6.53;;;;;;;-145.53;100.00;64590.91;6363162;27;20437;-65
2023/03/15 10:07:59;;;;;;;8.43;7.67;;;;;;;-145.53;100.00;64590.91;6362501;27;20428;-66
2023/03/15 10:11:24;;;;;;;7.50;6.83;;;;;;;-145.53;100.00;64590.91;6337766;27;20960;-67
2023/03/15 10:14:56;;;;;;;7.63;6.93;;;;;;;-145.53;100.00;64590.91;6337286;28;20422;-66
2023/03/15 10:18:27;;;;;;;7.30;6.70;;;;;;;-145.53;100.00;64590.91;6336664;28;20518;-66
2023/03/15 10:21:49;;;;;;;7.50;6.90;;;;;;;-145.53;100.00;64590.91;6325310;28;20965;-66
2023/03/15 10:25:07;;;;;;;7.00;6.40;;;;;;;-145.53;100.00;64590.91;6336761;28;20441;-65
2023/03/15 10:28:30;;;;;;;6.90;6.30;;;;;;;-145.53;100.00;64590.91;6337602;28;20417;-67
2023/03/15 10:31:41;;;;;;;6.80;6.30;;;;;;;-145.53;100.00;64590.91;6342661;28;20515;-67
2023/03/15 10:34:52;;;;;;;7.17;6.23;;;;;;;-145.53;100.00;64590.91;6339394;27;20438;-67
2023/03/15 10:38:01;;;;;;;6.77;6.20;;;;;;;-145.53;100.00;64590.91;6336102;28;20421;-66
2023/03/15 10:41:12;;;;;;;6.70;6.00;;;;;;;-145.53;100.00;64590.91;6349691;28;20439;-66
2023/03/15 10:44:39;;;;;;;5.80;5.30;;;;;;;-145.53;100.00;64590.91;6351018;27;20437;-66
2023/03/15 10:47:51;;;;;;;7.23;6.33;;;;;;;-145.53;100.00;64590.91;6361203;27;20437;-66
2023/03/15 10:51:05;;;;;;;5.93;5.43;;;;;;;-145.53;100.00;64590.91;6362227;27;20416;-66
2023/03/15 10:54:15;;;;;;;5.90;5.40;;;;;;;-145.53;100.00;64590.91;6358730;27;20432;-66
2023/03/15 10:57:23;;;;;;;6.63;6.03;;;;;;;-145.53;100.00;64590.91;6355929;27;20428;-66
2023/03/15 11:00:39;;;;;;;6.43;5.83;;;;;;;-145.53;100.00;64590.91;6361627;27;20500;-63
2023/03/15 11:04:03;;;;;;;6.70;6.00;;;;;;;-145.53;100.00;64590.91;6361435;27;20417;-66
2023/03/15 11:07:13;;;;;;;5.50;5.00;;;;;;;-145.53;100.00;64590.91;6349986;27;20454;-66
2023/03/15 11:10:24;;;;;;;5.40;5.00;;;;;;;-145.53;100.00;64590.91;6355099;27;20476;-66
2023/03/15 11:13:35;;;;;;;5.97;5.53;;;;;;;-145.53;100.00;64590.91;6335911;28;20429;-66
2023/03/15 11:16:49;;;;;;;5.03;4.63;;;;;;;-145.53;100.00;64590.91;6336141;28;20434;-66
2023/03/15 11:20:09;;;;;;;6.50;5.90;;;;;;;-145.53;100.00;64590.91;6327297;28;20435;-67
2023/03/15 11:23:25;;;;;;;8.13;4.90;;;;;;;-145.53;100.00;64590.91;6336101;28;20422;-66
2023/03/15 11:26:44;;;;;;;6.10;5.27;;;;;;;-145.53;100.00;64590.91;6335485;28;20572;-67
2023/03/15 11:29:58;;;;;;;4.63;4.33;;;;;;;-145.53;100.00;64590.91;6324109;28;20437;-66
2023/03/15 11:33:10;;;;;;;5.23;4.73;;;;;;;-145.53;100.00;64590.91;6335698;28;20425;-66
2023/03/15 11:36:26;;;;;;;5.27;4.83;;;;;;;-145.53;100.00;64590.91;6335516;28;20425;-66
2023/03/15 11:39:44;;;;;;;5.80;5.30;;;;;;;-145.53;100.00;64590.91;6335348;28;20515;-66
2023/03/15 11:43:02;;;;;;;5.00;4.60;;;;;;;-145.53;100.00;64590.91;6328785;28;20958;-66
2023/03/15 11:46:19;;;;;;;5.30;4.90;;;;;;;-145.53;100.00;64590.91;6335118;28;20936;-67
2023/03/15 11:49:40;;;;;;;4.60;4.20;;;;;;;-145.53;100.00;64590.91;6334516;28;20405;-66
2023/03/15 11:52:51;;;;;;;4.67;4.27;;;;;;;-145.53;100.00;64590.91;6324202;28;20445;-67
2023/03/15 11:56:19;;;;;;;4.60;4.20;;;;;;;-145.53;100.00;64590.91;6335236;28;20933;-66
2023/03/15 11:59:32;;;;;;;4.47;4.07;;;;;;;-145.53;100.00;64590.91;6335402;28;20444;-66
2023/03/15 12:02:56;;;;;;;4.57;4.27;;;;;;;-145.53;100.00;64590.91;6331685;28;20922;-66
2023/03/15 12:06:40;;;;;;;4.57;4.20;;;;;;;-145.53;100.00;64590.91;6329237;28;20457;-67
2023/03/15 12:09:55;;;;;;;4.57;4.17;;;;;;;-145.53;100.00;64590.91;6334960;28;20418;-66
2023/03/15 12:13:25;;;;;;;4.60;4.30;;;;;;;-145.53;100.00;64590.91;6334722;28;20422;-66
2023/03/15 12:16:42;;;;;;;4.47;4.07;;;;;;;-145.53;100.00;64590.91;6323465;28;20445;-65
2023/03/15 12:20:00;;;;;;;4.73;4.33;;;;;;;-145.53;100.00;64590.91;6334792;28;20418;-67
2023/03/15 12:23:32;;;;;;;4.93;4.53;;;;;;;-145.53;100.00;64590.91;6334463;28;20418;-67
2023/03/15 12:26:46;;;;;;;4.13;3.83;;;;;;;-145.53;100.00;64590.91;6323524;28;20489;-66
2023/03/15 12:30:03;;;;;;;4.40;4.00;;;;;;;-145.53;100.00;64590.91;6335006;28;20799;-66
2023/03/15 12:33:19;;;;;;;4.70;4.30;;;;;;;-145.53;100.00;64590.91;6334268;28;20449;-66
2023/03/15 12:36:41;;;;;;;4.13;3.83;;;;;;;-145.53;100.00;64590.91;6334603;28;20429;-66
2023/03/15 12:39:54;;;;;;;4.00;3.70;;;;;;;-145.53;100.00;64590.91;6343512;27;20949;-65
2023/03/15 12:43:06;;;;;;;4.57;4.17;;;;;;;-145.53;100.00;64590.91;6334269;28;20504;-66
2023/03/15 12:46:52;;;;;;;3.83;3.53;;;;;;;-145.53;100.00;64590.91;6333961;28;20453;-66
2023/03/15 12:50:35;;;;;;;4.37;4.00;;;;;;;-145.53;100.00;64590.91;6297817;28;20438;-66
2023/03/15 12:53:55;;;;;;;3.90;3.60;;;;;;;-145.53;100.00;64590.91;6306746;28;20446;-66
2023/03/15 12:57:12;;;;;;;4.30;3.90;;;;;;;-145.53;100.00;64590.91;6308645;28;20427;-66
2023/03/15 13:00:27;;;;;;;4.60;4.20;;;;;;;-145.53;100.00;64590.91;6304078;28;20453;-65
2023/03/15 13:03:40;;;;;;;4.40;4.10;;;;;;;-145.53;100.00;64590.91;6310010;28;20438;-67
2023/03/15 13:06:55;;;;;;;4.70;4.40;;;;;;;-145.53;100.00;64590.91;6313108;28;20848;-66
2023/03/15 13:10:36;;;;;;;6.53;5.87;;;;;;;-145.53;100.00;64590.91;6315266;28;20419;-68
2023/03/15 13:14:17;;;;;;;7.33;6.63;;;;;;;-145.53;100.00;64590.91;6325121;28;20448;-68
2023/03/15 13:17:36;;;;;;;9.80;8.90;;;;;;;-145.53;100.00;64590.91;6338179;28;20413;-68
2023/03/15 13:20:48;;;;;;;9.00;8.20;;;;;;;-145.53;100.00;64590.91;6338325;28;20801;-68
2023/03/15 13:24:01;;;;;;;14.93;13.53;;;;;;;-145.53;100.00;64590.91;6326536;28;20602;-68
2023/03/15 13:27:24;;;;;;;13.13;11.93;;;;;;;-145.53;100.00;64590.91;6338221;28;20804;-67
2023/03/15 13:30:42;;;;;;;12.93;11.70;;;;;;;-145.53;100.00;64590.91;6338550;28;20429;-68
2023/03/15 13:33:55;;;;;;;15.90;14.57;;;;;;;-145.53;100.00;64590.91;6337696;28;20479;-68
2023/03/15 13:37:14;;;;;;;13.97;12.67;;;;;;;-145.53;100.00;64590.91;6326755;28;20502;-68
2023/03/15 13:40:24;;;;;;;17.03;15.37;;;;;;;-145.53;100.00;64590.91;6332836;28;20437;-61
2023/03/15 13:43:35;;;;;;;15.63;14.23;;;;;;;-145.53;100.00;64590.91;6312466;28;20572;-61
2023/03/15 13:46:46;;;;;;;16.13;14.63;;;;;;;-145.53;100.00;64590.91;6302330;28;20450;-61
2023/03/15 13:49:54;;;;;;;15.27;14.00;;;;;;;-145.53;100.00;64590.91;6337612;28;20906;-61
2023/03/15 13:53:01;;;;;;;15.23;13.83;;;;;;;-145.53;100.00;64590.91;6337942;28;20457;-61
2023/03/15 13:56:11;;;;;;;15.07;13.77;;;;;;;-145.53;100.00;64590.91;6337538;28;20946;-61
2023/03/15 13:59:21;;;;;;;14.10;12.90;;;;;;;-145.53;100.00;64590.91;6326399;28;20437;-62
2023/03/15 14:02:42;;;;;;;14.53;13.20;;;;;;;-145.53;100.00;64590.91;6337431;28;20800;-61
2023/03/15 14:05:56;;;;;;;14.87;13.47;;;;;;;-145.53;100.00;64590.91;6337696;28;20894;-62
2023/03/15 14:09:15;;;;;;;14.37;13.17;;;;;;;-145.53;100.00;64590.91;6331600;28;20449;-62
2023/03/15 14:12:25;;;;;;;13.03;11.93;;;;;;;-145.53;100.00;64590.91;6357957;27;20445;-62
2023/03/15 14:15:39;;;;;;;14.27;13.03;;;;;;;-145.53;100.00;64590.91;6362613;27;20425;-62
2023/03/15 14:18:54;;;;;;;13.93;12.73;;;;;;;-145.53;100.00;64590.91;6362760;27;20417;-61
2023/03/15 14:22:16;;;;;;;13.57;12.37;;;;;;;-145.53;100.00;64590.91;6350264;27;20428;-61
2023/03/15 14:25:26;;;;;;;14.10;12.90;;;;;;;-145.53;100.00;64590.91;6363067;27;20445;-61
2023/03/15 14:28:36;;;;;;;13.30;12.13;;;;;;;-145.53;100.00;64590.91;6362528;27;20436;-61
2023/03/15 14:31:50;;;;;;;13.27;12.10;;;;;;;-145.53;100.00;64590.91;6357053;27;21004;-61